sensor_id;sensor_type;location;lat;lon;timestamp;temperature;humidity
19972;DHT22;10147;16.402;102.848;2023-05-19T00:00:08;28.60;99.90
19972;DHT22;10147;16.402;102.848;2023-05-19T00:02:40;28.70;99.90
19972;DHT22;10147;16.402;102.848;2023-05-19T00:05:12;28.70;99.90
19972;DHT22;10147;16.402;102.848;2023-05-19T00:07:47;28.80;99.90
19972;DHT22;10147;16.402;102.848;2023-05-19T00:10:21;28.80;99.90
19972;DHT22;10147;16.402;102.848;2023-05-19T00:12:51;28.80;99.90
19972;DHT22;10147;16.402;102.848;2023-05-19T00:15:21;28.80;99.90
19972;DHT22;10147;16.402;102.848;2023-05-19T00:17:51;28.80;99.90
19972;DHT22;10147;16.402;102.848;2023-05-19T00:20:23;28.90;99.90
19972;DHT22;10147;16.402;102.848;2023-05-19T00:22:53;29.00;99.90
19972;DHT22;10147;16.402;102.848;2023-05-19T00:25:23;29.00;99.90
19972;DHT22;10147;16.402;102.848;2023-05-19T00:27:53;29.10;99.90
19972;DHT22;10147;16.402;102.848;2023-05-19T00:30:24;29.10;99.90
19972;DHT22;10147;16.402;102.848;2023-05-19T00:32:54;29.20;99.90
19972;DHT22;10147;16.402;102.848;2023-05-19T00:35:24;29.20;99.90
19972;DHT22;10147;16.402;102.848;2023-05-19T00:37:54;29.20;99.90
19972;DHT22;10147;16.402;102.848;2023-05-19T00:40:24;29.30;99.90
19972;DHT22;10147;16.402;102.848;2023-05-19T00:42:59;29.40;99.90
19972;DHT22;10147;16.402;102.848;2023-05-19T00:45:29;29.50;99.90
19972;DHT22;10147;16.402;102.848;2023-05-19T00:47:59;29.60;99.90
19972;DHT22;10147;16.402;102.848;2023-05-19T00:50:29;29.60;99.90
19972;DHT22;10147;16.402;102.848;2023-05-19T00:53:00;29.70;99.90
19972;DHT22;10147;16.402;102.848;2023-05-19T00:55:31;29.80;99.90
19972;DHT22;10147;16.402;102.848;2023-05-19T00:58:04;29.90;99.90
19972;DHT22;10147;16.402;102.848;2023-05-19T01:00:34;30.00;99.90
19972;DHT22;10147;16.402;102.848;2023-05-19T01:03:06;30.10;99.90
19972;DHT22;10147;16.402;102.848;2023-05-19T01:05:41;30.00;99.90
19972;DHT22;10147;16.402;102.848;2023-05-19T01:08:13;30.10;99.90
19972;DHT22;10147;16.402;102.848;2023-05-19T01:10:43;30.20;99.90
19972;DHT22;10147;16.402;102.848;2023-05-19T01:13:13;30.30;99.90
19972;DHT22;10147;16.402;102.848;2023-05-19T01:15:59;30.40;99.90
19972;DHT22;10147;16.402;102.848;2023-05-19T01:30:57;30.70;99.90
19972;DHT22;10147;16.402;102.848;2023-05-19T01:33:29;30.80;99.90
19972;DHT22;10147;16.402;102.848;2023-05-19T01:36:02;31.00;99.90
19972;DHT22;10147;16.402;102.848;2023-05-19T01:38:33;31.00;99.90
19972;DHT22;10147;16.402;102.848;2023-05-19T01:41:05;31.00;99.90
19972;DHT22;10147;16.402;102.848;2023-05-19T01:43:35;31.10;99.90
19972;DHT22;10147;16.402;102.848;2023-05-19T01:46:06;31.20;99.90
19972;DHT22;10147;16.402;102.848;2023-05-19T01:48:36;31.30;99.90
19972;DHT22;10147;16.402;102.848;2023-05-19T01:51:07;31.30;99.90
19972;DHT22;10147;16.402;102.848;2023-05-19T01:53:37;31.50;99.90
19972;DHT22;10147;16.402;102.848;2023-05-19T01:56:07;31.60;99.90
19972;DHT22;10147;16.402;102.848;2023-05-19T01:58:45;31.70;99.90
19972;DHT22;10147;16.402;102.848;2023-05-19T02:01:36;31.70;99.90
19972;DHT22;10147;16.402;102.848;2023-05-19T02:04:32;31.80;99.90
19972;DHT22;10147;16.402;102.848;2023-05-19T02:10:27;31.90;99.90
19972;DHT22;10147;16.402;102.848;2023-05-19T02:13:03;32.00;99.90
19972;DHT22;10147;16.402;102.848;2023-05-19T02:15:40;32.10;99.90
19972;DHT22;10147;16.402;102.848;2023-05-19T02:18:14;32.30;99.90
19972;DHT22;10147;16.402;102.848;2023-05-19T02:20:50;32.30;99.90
19972;DHT22;10147;16.402;102.848;2023-05-19T02:23:20;32.30;99.90
19972;DHT22;10147;16.402;102.848;2023-05-19T02:25:50;32.40;99.90
19972;DHT22;10147;16.402;102.848;2023-05-19T02:28:20;32.50;99.90
19972;DHT22;10147;16.402;102.848;2023-05-19T02:30:50;32.50;99.90
19972;DHT22;10147;16.402;102.848;2023-05-19T02:33:21;32.60;99.90
19972;DHT22;10147;16.402;102.848;2023-05-19T02:35:55;32.70;99.90
19972;DHT22;10147;16.402;102.848;2023-05-19T02:38:25;32.70;99.90
19972;DHT22;10147;16.402;102.848;2023-05-19T02:40:55;32.90;99.90
19972;DHT22;10147;16.402;102.848;2023-05-19T02:43:25;33.00;99.90
19972;DHT22;10147;16.402;102.848;2023-05-19T02:45:55;33.10;99.90
19972;DHT22;10147;16.402;102.848;2023-05-19T02:48:26;33.30;99.90
19972;DHT22;10147;16.402;102.848;2023-05-19T02:50:56;33.50;99.90
19972;DHT22;10147;16.402;102.848;2023-05-19T02:53:30;33.70;99.90
19972;DHT22;10147;16.402;102.848;2023-05-19T02:56:01;33.60;99.90
19972;DHT22;10147;16.402;102.848;2023-05-19T02:58:30;33.80;99.90
19972;DHT22;10147;16.402;102.848;2023-05-19T03:01:01;33.70;99.90
19972;DHT22;10147;16.402;102.848;2023-05-19T03:03:30;33.90;99.90
19972;DHT22;10147;16.402;102.848;2023-05-19T03:06:01;33.80;99.90
19972;DHT22;10147;16.402;102.848;2023-05-19T03:08:31;34.00;99.90
19972;DHT22;10147;16.402;102.848;2023-05-19T03:11:01;34.00;99.90
19972;DHT22;10147;16.402;102.848;2023-05-19T03:13:32;34.10;99.90
19972;DHT22;10147;16.402;102.848;2023-05-19T03:16:02;34.20;99.90
19972;DHT22;10147;16.402;102.848;2023-05-19T03:18:32;34.30;99.90
19972;DHT22;10147;16.402;102.848;2023-05-19T03:21:02;34.30;99.90
19972;DHT22;10147;16.402;102.848;2023-05-19T03:23:32;34.40;99.90
19972;DHT22;10147;16.402;102.848;2023-05-19T03:26:03;34.50;99.90
19972;DHT22;10147;16.402;102.848;2023-05-19T03:28:33;34.60;99.90
19972;DHT22;10147;16.402;102.848;2023-05-19T03:31:04;34.60;99.90
19972;DHT22;10147;16.402;102.848;2023-05-19T03:33:37;34.60;99.90
19972;DHT22;10147;16.402;102.848;2023-05-19T03:36:08;34.70;99.90
19972;DHT22;10147;16.402;102.848;2023-05-19T03:38:39;34.70;99.90
19972;DHT22;10147;16.402;102.848;2023-05-19T03:41:10;34.80;99.90
19972;DHT22;10147;16.402;102.848;2023-05-19T03:43:39;34.90;99.90
19972;DHT22;10147;16.402;102.848;2023-05-19T03:46:09;34.90;99.90
19972;DHT22;10147;16.402;102.848;2023-05-19T03:48:59;34.80;99.90
19972;DHT22;10147;16.402;102.848;2023-05-19T03:51:49;35.10;99.90
19972;DHT22;10147;16.402;102.848;2023-05-19T03:54:33;35.30;99.90
19972;DHT22;10147;16.402;102.848;2023-05-19T03:57:04;35.50;99.90
19972;DHT22;10147;16.402;102.848;2023-05-19T03:59:34;35.60;99.90
19972;DHT22;10147;16.402;102.848;2023-05-19T04:02:05;35.60;99.90
19972;DHT22;10147;16.402;102.848;2023-05-19T04:04:36;35.70;99.90
19972;DHT22;10147;16.402;102.848;2023-05-19T04:07:06;35.80;99.90
19972;DHT22;10147;16.402;102.848;2023-05-19T04:09:36;35.60;99.90
19972;DHT22;10147;16.402;102.848;2023-05-19T04:12:06;35.80;99.90
19972;DHT22;10147;16.402;102.848;2023-05-19T04:14:36;35.70;99.90
19972;DHT22;10147;16.402;102.848;2023-05-19T04:17:06;36.00;99.90
19972;DHT22;10147;16.402;102.848;2023-05-19T04:19:36;36.20;99.90
19972;DHT22;10147;16.402;102.848;2023-05-19T04:22:06;36.20;99.90
19972;DHT22;10147;16.402;102.848;2023-05-19T04:24:36;36.30;99.90
19972;DHT22;10147;16.402;102.848;2023-05-19T04:27:07;36.20;99.90
19972;DHT22;10147;16.402;102.848;2023-05-19T04:29:40;36.40;99.90
19972;DHT22;10147;16.402;102.848;2023-05-19T04:32:10;36.40;99.90
19972;DHT22;10147;16.402;102.848;2023-05-19T04:34:40;36.30;99.90
19972;DHT22;10147;16.402;102.848;2023-05-19T04:37:20;36.30;99.90
19972;DHT22;10147;16.402;102.848;2023-05-19T04:39:50;36.50;99.90
19972;DHT22;10147;16.402;102.848;2023-05-19T04:42:22;36.70;99.90
19972;DHT22;10147;16.402;102.848;2023-05-19T04:44:54;36.70;99.90
19972;DHT22;10147;16.402;102.848;2023-05-19T04:47:27;36.70;99.90
19972;DHT22;10147;16.402;102.848;2023-05-19T04:49:58;36.70;99.90
19972;DHT22;10147;16.402;102.848;2023-05-19T04:52:29;36.80;99.90
19972;DHT22;10147;16.402;102.848;2023-05-19T04:55:01;36.90;99.90
19972;DHT22;10147;16.402;102.848;2023-05-19T04:57:31;37.00;99.90
19972;DHT22;10147;16.402;102.848;2023-05-19T05:00:01;37.10;99.90
19972;DHT22;10147;16.402;102.848;2023-05-19T05:02:39;37.20;99.90
19972;DHT22;10147;16.402;102.848;2023-05-19T05:05:12;37.00;99.90
19972;DHT22;10147;16.402;102.848;2023-05-19T05:07:42;36.90;99.90
19972;DHT22;10147;16.402;102.848;2023-05-19T05:10:12;36.80;99.90
19972;DHT22;10147;16.402;102.848;2023-05-19T05:12:43;37.10;99.90
19972;DHT22;10147;16.402;102.848;2023-05-19T05:15:13;37.30;99.90
19972;DHT22;10147;16.402;102.848;2023-05-19T05:17:45;37.20;99.90
19972;DHT22;10147;16.402;102.848;2023-05-19T05:20:16;37.40;99.90
19972;DHT22;10147;16.402;102.848;2023-05-19T05:22:48;37.50;99.90
19972;DHT22;10147;16.402;102.848;2023-05-19T05:25:19;37.70;99.90
19972;DHT22;10147;16.402;102.848;2023-05-19T05:27:50;37.80;99.90
19972;DHT22;10147;16.402;102.848;2023-05-19T05:30:20;37.70;99.90
19972;DHT22;10147;16.402;102.848;2023-05-19T05:32:51;37.70;99.90
19972;DHT22;10147;16.402;102.848;2023-05-19T05:35:31;37.80;99.90
19972;DHT22;10147;16.402;102.848;2023-05-19T05:38:03;37.70;99.90
19972;DHT22;10147;16.402;102.848;2023-05-19T05:40:35;37.90;99.90
19972;DHT22;10147;16.402;102.848;2023-05-19T05:43:07;38.00;99.90
19972;DHT22;10147;16.402;102.848;2023-05-19T05:45:44;38.10;99.90
19972;DHT22;10147;16.402;102.848;2023-05-19T05:48:15;38.30;99.90
19972;DHT22;10147;16.402;102.848;2023-05-19T05:50:45;38.40;99.90
19972;DHT22;10147;16.402;102.848;2023-05-19T05:53:21;38.40;99.90
19972;DHT22;10147;16.402;102.848;2023-05-19T05:55:54;38.30;99.90
19972;DHT22;10147;16.402;102.848;2023-05-19T05:58:31;38.40;99.90
19972;DHT22;10147;16.402;102.848;2023-05-19T06:01:04;38.40;99.90
19972;DHT22;10147;16.402;102.848;2023-05-19T06:03:40;38.50;99.90
19972;DHT22;10147;16.402;102.848;2023-05-19T06:06:17;38.60;99.90
19972;DHT22;10147;16.402;102.848;2023-05-19T06:08:48;38.60;99.90
19972;DHT22;10147;16.402;102.848;2023-05-19T06:11:18;38.70;99.90
19972;DHT22;10147;16.402;102.848;2023-05-19T06:13:50;38.50;99.90
19972;DHT22;10147;16.402;102.848;2023-05-19T06:16:40;38.60;99.90
19972;DHT22;10147;16.402;102.848;2023-05-19T06:19:10;38.80;99.90
19972;DHT22;10147;16.402;102.848;2023-05-19T06:21:42;38.80;99.90
19972;DHT22;10147;16.402;102.848;2023-05-19T06:24:12;38.70;99.90
19972;DHT22;10147;16.402;102.848;2023-05-19T06:26:42;38.70;99.10
19972;DHT22;10147;16.402;102.848;2023-05-19T06:29:13;38.70;98.30
19972;DHT22;10147;16.402;102.848;2023-05-19T06:31:43;38.50;98.00
19972;DHT22;10147;16.402;102.848;2023-05-19T06:34:16;38.70;97.10
19972;DHT22;10147;16.402;102.848;2023-05-19T06:36:46;38.90;96.50
19972;DHT22;10147;16.402;102.848;2023-05-19T06:39:18;38.90;97.00
19972;DHT22;10147;16.402;102.848;2023-05-19T06:41:50;38.80;94.80
19972;DHT22;10147;16.402;102.848;2023-05-19T06:44:39;39.00;94.70
19972;DHT22;10147;16.402;102.848;2023-05-19T06:47:11;39.00;95.70
19972;DHT22;10147;16.402;102.848;2023-05-19T06:49:42;39.10;94.20
19972;DHT22;10147;16.402;102.848;2023-05-19T06:52:13;39.10;94.30
19972;DHT22;10147;16.402;102.848;2023-05-19T06:54:47;39.00;93.10
19972;DHT22;10147;16.402;102.848;2023-05-19T06:57:17;39.10;93.70
19972;DHT22;10147;16.402;102.848;2023-05-19T06:59:47;39.20;93.30
19972;DHT22;10147;16.402;102.848;2023-05-19T07:02:18;39.30;93.80
19972;DHT22;10147;16.402;102.848;2023-05-19T07:04:48;39.50;94.30
19972;DHT22;10147;16.402;102.848;2023-05-19T07:07:21;39.40;93.10
19972;DHT22;10147;16.402;102.848;2023-05-19T07:09:51;39.30;92.30
19972;DHT22;10147;16.402;102.848;2023-05-19T07:12:21;39.50;93.10
19972;DHT22;10147;16.402;102.848;2023-05-19T07:14:52;39.50;92.60
19972;DHT22;10147;16.402;102.848;2023-05-19T07:17:23;39.40;93.10
19972;DHT22;10147;16.402;102.848;2023-05-19T07:19:53;39.40;93.20
19972;DHT22;10147;16.402;102.848;2023-05-19T07:22:23;39.30;90.50
19972;DHT22;10147;16.402;102.848;2023-05-19T07:24:59;39.10;91.00
19972;DHT22;10147;16.402;102.848;2023-05-19T07:27:29;39.00;87.50
19972;DHT22;10147;16.402;102.848;2023-05-19T07:30:00;39.30;90.30
19972;DHT22;10147;16.402;102.848;2023-05-19T07:32:29;39.30;90.10
19972;DHT22;10147;16.402;102.848;2023-05-19T07:34:59;39.30;88.80
19972;DHT22;10147;16.402;102.848;2023-05-19T07:37:29;39.10;88.90
19972;DHT22;10147;16.402;102.848;2023-05-19T07:39:59;39.30;86.80
19972;DHT22;10147;16.402;102.848;2023-05-19T07:42:29;39.30;85.90
19972;DHT22;10147;16.402;102.848;2023-05-19T07:44:59;39.40;87.30
19972;DHT22;10147;16.402;102.848;2023-05-19T07:47:31;39.40;90.30
19972;DHT22;10147;16.402;102.848;2023-05-19T07:50:01;39.40;87.00
19972;DHT22;10147;16.402;102.848;2023-05-19T07:52:32;39.20;84.20
19972;DHT22;10147;16.402;102.848;2023-05-19T07:55:01;39.00;84.00
19972;DHT22;10147;16.402;102.848;2023-05-19T07:57:32;39.00;85.20
19972;DHT22;10147;16.402;102.848;2023-05-19T08:00:02;39.10;86.70
19972;DHT22;10147;16.402;102.848;2023-05-19T08:02:38;39.30;86.20
19972;DHT22;10147;16.402;102.848;2023-05-19T08:05:08;39.20;85.20
19972;DHT22;10147;16.402;102.848;2023-05-19T08:07:40;39.40;85.30
19972;DHT22;10147;16.402;102.848;2023-05-19T08:10:09;39.40;85.30
19972;DHT22;10147;16.402;102.848;2023-05-19T08:12:39;39.30;85.50
19972;DHT22;10147;16.402;102.848;2023-05-19T08:15:10;39.50;85.30
19972;DHT22;10147;16.402;102.848;2023-05-19T08:17:40;39.60;83.90
19972;DHT22;10147;16.402;102.848;2023-05-19T08:20:10;39.50;87.60
19972;DHT22;10147;16.402;102.848;2023-05-19T08:22:43;39.30;85.50
19972;DHT22;10147;16.402;102.848;2023-05-19T08:25:13;39.30;86.70
19972;DHT22;10147;16.402;102.848;2023-05-19T08:27:43;39.50;85.70
19972;DHT22;10147;16.402;102.848;2023-05-19T08:30:12;39.50;87.10
19972;DHT22;10147;16.402;102.848;2023-05-19T08:32:42;39.60;83.90
19972;DHT22;10147;16.402;102.848;2023-05-19T08:35:13;39.40;83.20
19972;DHT22;10147;16.402;102.848;2023-05-19T08:37:43;39.10;84.40
19972;DHT22;10147;16.402;102.848;2023-05-19T08:40:16;39.30;87.10
19972;DHT22;10147;16.402;102.848;2023-05-19T08:42:47;39.30;84.10
19972;DHT22;10147;16.402;102.848;2023-05-19T08:45:17;39.30;83.50
19972;DHT22;10147;16.402;102.848;2023-05-19T08:47:55;39.40;86.30
19972;DHT22;10147;16.402;102.848;2023-05-19T08:50:37;39.30;84.30
19972;DHT22;10147;16.402;102.848;2023-05-19T08:56:09;39.30;85.20
19972;DHT22;10147;16.402;102.848;2023-05-19T08:58:41;39.20;87.50
19972;DHT22;10147;16.402;102.848;2023-05-19T09:01:13;39.00;86.20
19972;DHT22;10147;16.402;102.848;2023-05-19T09:03:46;38.90;86.30
19972;DHT22;10147;16.402;102.848;2023-05-19T09:06:18;38.90;84.80
19972;DHT22;10147;16.402;102.848;2023-05-19T09:08:47;39.00;86.50
19972;DHT22;10147;16.402;102.848;2023-05-19T09:11:17;38.80;85.70
19972;DHT22;10147;16.402;102.848;2023-05-19T09:13:47;38.90;85.10
19972;DHT22;10147;16.402;102.848;2023-05-19T09:16:18;38.90;82.80
19972;DHT22;10147;16.402;102.848;2023-05-19T09:18:55;39.00;84.00
19972;DHT22;10147;16.402;102.848;2023-05-19T09:21:32;38.90;86.40
19972;DHT22;10147;16.402;102.848;2023-05-19T09:24:06;38.90;85.00
19972;DHT22;10147;16.402;102.848;2023-05-19T09:26:41;38.90;85.30
19972;DHT22;10147;16.402;102.848;2023-05-19T09:29:17;38.90;84.10
19972;DHT22;10147;16.402;102.848;2023-05-19T09:31:55;38.90;85.40
19972;DHT22;10147;16.402;102.848;2023-05-19T09:34:34;38.80;85.10
19972;DHT22;10147;16.402;102.848;2023-05-19T09:37:12;38.70;86.70
19972;DHT22;10147;16.402;102.848;2023-05-19T09:39:43;38.70;85.30
19972;DHT22;10147;16.402;102.848;2023-05-19T09:42:26;38.90;85.10
19972;DHT22;10147;16.402;102.848;2023-05-19T09:45:04;38.80;87.20
19972;DHT22;10147;16.402;102.848;2023-05-19T09:47:39;38.70;90.00
19972;DHT22;10147;16.402;102.848;2023-05-19T09:50:11;38.70;90.50
19972;DHT22;10147;16.402;102.848;2023-05-19T09:52:43;38.60;91.20
19972;DHT22;10147;16.402;102.848;2023-05-19T09:55:13;38.60;89.50
19972;DHT22;10147;16.402;102.848;2023-05-19T09:57:44;38.60;88.20
19972;DHT22;10147;16.402;102.848;2023-05-19T10:00:14;38.60;89.00
19972;DHT22;10147;16.402;102.848;2023-05-19T10:02:47;38.50;90.00
19972;DHT22;10147;16.402;102.848;2023-05-19T10:05:19;38.30;90.80
19972;DHT22;10147;16.402;102.848;2023-05-19T10:07:52;38.40;87.50
19972;DHT22;10147;16.402;102.848;2023-05-19T10:10:22;38.40;91.20
19972;DHT22;10147;16.402;102.848;2023-05-19T10:12:53;38.30;91.20
19972;DHT22;10147;16.402;102.848;2023-05-19T10:15:24;38.20;92.40
19972;DHT22;10147;16.402;102.848;2023-05-19T10:17:55;38.10;92.90
19972;DHT22;10147;16.402;102.848;2023-05-19T10:20:26;38.20;95.00
19972;DHT22;10147;16.402;102.848;2023-05-19T10:22:57;38.10;94.20
19972;DHT22;10147;16.402;102.848;2023-05-19T10:25:26;38.00;97.10
19972;DHT22;10147;16.402;102.848;2023-05-19T10:28:08;38.00;95.80
19972;DHT22;10147;16.402;102.848;2023-05-19T10:30:48;38.00;95.90
19972;DHT22;10147;16.402;102.848;2023-05-19T10:33:21;37.90;94.50
19972;DHT22;10147;16.402;102.848;2023-05-19T10:39:10;37.70;95.00
19972;DHT22;10147;16.402;102.848;2023-05-19T10:41:58;37.60;95.70
19972;DHT22;10147;16.402;102.848;2023-05-19T10:44:49;37.60;96.00
19972;DHT22;10147;16.402;102.848;2023-05-19T10:47:26;37.50;95.30
19972;DHT22;10147;16.402;102.848;2023-05-19T10:49:59;37.30;95.70
19972;DHT22;10147;16.402;102.848;2023-05-19T10:52:29;37.30;96.00
19972;DHT22;10147;16.402;102.848;2023-05-19T10:55:01;37.20;96.20
19972;DHT22;10147;16.402;102.848;2023-05-19T10:57:33;37.10;97.00
19972;DHT22;10147;16.402;102.848;2023-05-19T11:00:27;37.00;97.50
19972;DHT22;10147;16.402;102.848;2023-05-19T11:03:17;37.10;98.50
19972;DHT22;10147;16.402;102.848;2023-05-19T11:05:52;36.90;98.90
19972;DHT22;10147;16.402;102.848;2023-05-19T11:08:34;36.90;99.70
19972;DHT22;10147;16.402;102.848;2023-05-19T11:11:14;36.80;99.90
19972;DHT22;10147;16.402;102.848;2023-05-19T11:13:55;36.80;99.90
19972;DHT22;10147;16.402;102.848;2023-05-19T11:16:30;36.70;99.90
19972;DHT22;10147;16.402;102.848;2023-05-19T11:19:00;36.60;99.90
19972;DHT22;10147;16.402;102.848;2023-05-19T11:21:50;36.60;99.90
19972;DHT22;10147;16.402;102.848;2023-05-19T11:24:43;36.50;99.90
19972;DHT22;10147;16.402;102.848;2023-05-19T11:27:28;36.30;99.90
19972;DHT22;10147;16.402;102.848;2023-05-19T11:30:09;36.20;99.90
19972;DHT22;10147;16.402;102.848;2023-05-19T11:32:47;36.20;99.90
19972;DHT22;10147;16.402;102.848;2023-05-19T11:35:17;36.20;99.90
19972;DHT22;10147;16.402;102.848;2023-05-19T11:37:50;36.30;99.90
19972;DHT22;10147;16.402;102.848;2023-05-19T11:40:22;36.20;99.90
19972;DHT22;10147;16.402;102.848;2023-05-19T11:42:52;36.20;99.90
19972;DHT22;10147;16.402;102.848;2023-05-19T11:45:27;36.10;99.90
19972;DHT22;10147;16.402;102.848;2023-05-19T11:48:00;36.10;99.90
19972;DHT22;10147;16.402;102.848;2023-05-19T11:50:32;36.00;99.90
19972;DHT22;10147;16.402;102.848;2023-05-19T11:53:02;35.90;99.90
19972;DHT22;10147;16.402;102.848;2023-05-19T11:55:33;35.80;99.90
19972;DHT22;10147;16.402;102.848;2023-05-19T11:58:03;35.60;99.90
19972;DHT22;10147;16.402;102.848;2023-05-19T12:00:41;35.60;99.90
19972;DHT22;10147;16.402;102.848;2023-05-19T12:03:12;35.70;99.90
19972;DHT22;10147;16.402;102.848;2023-05-19T12:05:44;35.70;99.90
19972;DHT22;10147;16.402;102.848;2023-05-19T12:08:16;35.60;99.90
19972;DHT22;10147;16.402;102.848;2023-05-19T12:10:51;35.50;99.90
19972;DHT22;10147;16.402;102.848;2023-05-19T12:13:22;35.40;99.90
19972;DHT22;10147;16.402;102.848;2023-05-19T12:15:53;35.40;99.90
19972;DHT22;10147;16.402;102.848;2023-05-19T12:18:28;35.40;99.90
19972;DHT22;10147;16.402;102.848;2023-05-19T12:21:00;35.40;99.90
19972;DHT22;10147;16.402;102.848;2023-05-19T12:23:31;35.30;99.90
19972;DHT22;10147;16.402;102.848;2023-05-19T12:26:01;35.40;99.90
19972;DHT22;10147;16.402;102.848;2023-05-19T12:28:31;35.40;99.90
19972;DHT22;10147;16.402;102.848;2023-05-19T12:31:01;35.30;99.90
19972;DHT22;10147;16.402;102.848;2023-05-19T12:33:32;35.30;99.90
19972;DHT22;10147;16.402;102.848;2023-05-19T12:36:04;35.20;99.90
19972;DHT22;10147;16.402;102.848;2023-05-19T12:38:35;35.10;99.90
19972;DHT22;10147;16.402;102.848;2023-05-19T12:41:10;35.00;99.90
19972;DHT22;10147;16.402;102.848;2023-05-19T12:43:42;34.80;99.90
19972;DHT22;10147;16.402;102.848;2023-05-19T12:46:13;34.80;99.90
19972;DHT22;10147;16.402;102.848;2023-05-19T12:48:46;34.80;99.90
19972;DHT22;10147;16.402;102.848;2023-05-19T12:51:17;34.80;99.90
19972;DHT22;10147;16.402;102.848;2023-05-19T12:53:49;34.90;99.90
19972;DHT22;10147;16.402;102.848;2023-05-19T12:56:20;34.80;99.90
19972;DHT22;10147;16.402;102.848;2023-05-19T12:58:53;34.60;99.90
19972;DHT22;10147;16.402;102.848;2023-05-19T13:01:24;34.70;99.90
19972;DHT22;10147;16.402;102.848;2023-05-19T13:03:56;34.80;99.90
19972;DHT22;10147;16.402;102.848;2023-05-19T13:06:26;34.80;99.90
19972;DHT22;10147;16.402;102.848;2023-05-19T13:08:56;34.70;99.90
19972;DHT22;10147;16.402;102.848;2023-05-19T13:11:26;34.70;99.90
19972;DHT22;10147;16.402;102.848;2023-05-19T13:13:57;34.70;99.90
19972;DHT22;10147;16.402;102.848;2023-05-19T13:16:27;34.70;99.90
19972;DHT22;10147;16.402;102.848;2023-05-19T13:18:57;34.70;99.90
19972;DHT22;10147;16.402;102.848;2023-05-19T13:21:28;34.70;99.90
19972;DHT22;10147;16.402;102.848;2023-05-19T13:23:58;34.70;99.90
19972;DHT22;10147;16.402;102.848;2023-05-19T13:26:28;34.40;99.90
19972;DHT22;10147;16.402;102.848;2023-05-19T13:28:59;34.40;99.90
19972;DHT22;10147;16.402;102.848;2023-05-19T13:31:29;34.20;99.90
19972;DHT22;10147;16.402;102.848;2023-05-19T13:34:00;34.20;99.90
19972;DHT22;10147;16.402;102.848;2023-05-19T13:36:30;34.10;99.90
19972;DHT22;10147;16.402;102.848;2023-05-19T13:39:01;34.30;99.90
19972;DHT22;10147;16.402;102.848;2023-05-19T13:41:31;34.10;99.90
19972;DHT22;10147;16.402;102.848;2023-05-19T13:44:02;34.20;99.90
19972;DHT22;10147;16.402;102.848;2023-05-19T13:46:32;34.20;99.90
19972;DHT22;10147;16.402;102.848;2023-05-19T13:49:12;34.10;99.90
19972;DHT22;10147;16.402;102.848;2023-05-19T13:51:42;34.00;99.90
19972;DHT22;10147;16.402;102.848;2023-05-19T13:54:12;34.10;99.90
19972;DHT22;10147;16.402;102.848;2023-05-19T13:56:42;33.90;99.90
19972;DHT22;10147;16.402;102.848;2023-05-19T13:59:15;33.90;99.90
19972;DHT22;10147;16.402;102.848;2023-05-19T14:01:51;33.80;99.90
19972;DHT22;10147;16.402;102.848;2023-05-19T14:04:22;33.70;99.90
19972;DHT22;10147;16.402;102.848;2023-05-19T14:06:55;33.70;99.90
19972;DHT22;10147;16.402;102.848;2023-05-19T14:09:25;33.60;99.90
19972;DHT22;10147;16.402;102.848;2023-05-19T14:11:57;33.60;99.90
19972;DHT22;10147;16.402;102.848;2023-05-19T14:14:27;33.50;99.90
19972;DHT22;10147;16.402;102.848;2023-05-19T14:16:57;33.50;99.90
19972;DHT22;10147;16.402;102.848;2023-05-19T14:19:27;33.40;99.90
19972;DHT22;10147;16.402;102.848;2023-05-19T14:21:58;33.40;99.90
19972;DHT22;10147;16.402;102.848;2023-05-19T14:24:28;33.30;99.90
19972;DHT22;10147;16.402;102.848;2023-05-19T14:26:58;33.30;99.90
19972;DHT22;10147;16.402;102.848;2023-05-19T14:29:28;33.30;99.90
19972;DHT22;10147;16.402;102.848;2023-05-19T14:31:59;33.30;99.90
19972;DHT22;10147;16.402;102.848;2023-05-19T14:34:31;33.30;99.90
19972;DHT22;10147;16.402;102.848;2023-05-19T14:37:01;33.20;99.90
19972;DHT22;10147;16.402;102.848;2023-05-19T14:39:31;33.20;99.90
19972;DHT22;10147;16.402;102.848;2023-05-19T14:42:01;33.10;99.90
19972;DHT22;10147;16.402;102.848;2023-05-19T14:44:31;33.10;99.90
19972;DHT22;10147;16.402;102.848;2023-05-19T14:47:02;33.00;99.90
19972;DHT22;10147;16.402;102.848;2023-05-19T14:49:32;33.00;99.90
19972;DHT22;10147;16.402;102.848;2023-05-19T14:52:02;33.00;99.90
19972;DHT22;10147;16.402;102.848;2023-05-19T14:54:33;33.00;99.90
19972;DHT22;10147;16.402;102.848;2023-05-19T14:57:03;33.00;99.90
19972;DHT22;10147;16.402;102.848;2023-05-19T14:59:36;33.00;99.90
19972;DHT22;10147;16.402;102.848;2023-05-19T15:02:06;33.00;99.90
19972;DHT22;10147;16.402;102.848;2023-05-19T15:04:36;33.00;99.90
19972;DHT22;10147;16.402;102.848;2023-05-19T15:07:06;33.00;99.90
19972;DHT22;10147;16.402;102.848;2023-05-19T15:09:37;32.90;99.90
19972;DHT22;10147;16.402;102.848;2023-05-19T15:12:07;32.90;99.90
19972;DHT22;10147;16.402;102.848;2023-05-19T15:14:38;32.80;99.90
19972;DHT22;10147;16.402;102.848;2023-05-19T15:17:07;32.90;99.90
19972;DHT22;10147;16.402;102.848;2023-05-19T15:19:38;32.90;99.90
19972;DHT22;10147;16.402;102.848;2023-05-19T15:22:10;32.90;99.90
19972;DHT22;10147;16.402;102.848;2023-05-19T15:24:40;32.90;99.90
19972;DHT22;10147;16.402;102.848;2023-05-19T15:27:10;32.80;99.90
19972;DHT22;10147;16.402;102.848;2023-05-19T15:29:40;32.70;99.90
19972;DHT22;10147;16.402;102.848;2023-05-19T15:32:10;32.70;99.90
19972;DHT22;10147;16.402;102.848;2023-05-19T15:34:41;32.70;99.90
19972;DHT22;10147;16.402;102.848;2023-05-19T15:37:11;32.70;99.90
19972;DHT22;10147;16.402;102.848;2023-05-19T15:39:41;32.70;99.90
19972;DHT22;10147;16.402;102.848;2023-05-19T15:42:11;32.60;99.90
19972;DHT22;10147;16.402;102.848;2023-05-19T15:44:41;32.70;99.90
19972;DHT22;10147;16.402;102.848;2023-05-19T15:47:14;32.60;99.90
19972;DHT22;10147;16.402;102.848;2023-05-19T15:49:45;32.60;99.90
19972;DHT22;10147;16.402;102.848;2023-05-19T15:52:14;32.60;99.90
19972;DHT22;10147;16.402;102.848;2023-05-19T15:54:45;32.60;99.90